createdAt,value
2022-11-08T00:00:37.458Z,98635.49
2022-11-08T00:01:41.459Z,98637.11
2022-11-08T00:02:43.453Z,98637.76
2022-11-08T00:03:45.306Z,98639.70
2022-11-08T00:04:47.080Z,98636.04
2022-11-08T00:06:07.292Z,98643.85
2022-11-08T00:07:30.664Z,98641.00
2022-11-08T00:08:50.882Z,98646.49
2022-11-08T00:10:11.292Z,98647.69
2022-11-08T00:11:31.387Z,98647.62
2022-11-08T00:12:52.152Z,98648.05
2022-11-08T00:14:00.140Z,98648.08
2022-11-08T00:15:03.106Z,98645.30
2022-11-08T00:16:05.081Z,98643.64
2022-11-08T00:17:06.954Z,98647.05
2022-11-08T00:18:08.673Z,98647.11
2022-11-08T00:19:10.374Z,98647.93
2022-11-08T00:20:12.161Z,98644.88
2022-11-08T00:21:13.938Z,98643.59
2022-11-08T00:22:17.310Z,98646.11
2022-11-08T00:23:19.036Z,98645.48
2022-11-08T00:24:20.834Z,98636.85
2022-11-08T00:25:23.082Z,98643.10
2022-11-08T00:26:24.815Z,98638.78
2022-11-08T00:27:27.253Z,98640.89
2022-11-08T00:28:28.999Z,98644.33
2022-11-08T00:29:31.290Z,98643.84
2022-11-08T00:30:33.050Z,98639.70
2022-11-08T00:31:34.793Z,98645.02
2022-11-08T00:32:36.537Z,98648.59
2022-11-08T00:33:38.291Z,98649.70
2022-11-08T00:34:40.253Z,98648.10
2022-11-08T00:35:42.041Z,98649.51
2022-11-08T00:36:43.849Z,98650.46
2022-11-08T00:37:45.588Z,98653.20
2022-11-08T00:38:47.341Z,98652.14
2022-11-08T00:39:49.953Z,98650.95
2022-11-08T00:40:51.692Z,98650.63
2022-11-08T00:41:53.581Z,98652.02
2022-11-08T00:42:55.395Z,98652.93
2022-11-08T00:43:57.190Z,98650.84
2022-11-08T00:44:58.959Z,98653.73
2022-11-08T00:46:00.714Z,98651.38
2022-11-08T00:47:03.558Z,98654.38
2022-11-08T00:48:05.824Z,98652.55
2022-11-08T00:49:08.696Z,98650.95
2022-11-08T00:50:10.520Z,98653.48
2022-11-08T00:51:12.824Z,98650.38
2022-11-08T00:52:14.585Z,98648.59
2022-11-08T00:53:16.501Z,98647.41
2022-11-08T00:54:20.620Z,98649.46
2022-11-08T00:55:22.359Z,98650.23
2022-11-08T00:56:24.719Z,98646.71
2022-11-08T00:57:46.898Z,98651.71
2022-11-08T00:58:48.189Z,98650.74
2022-11-08T00:59:50.302Z,98651.98
2022-11-08T01:00:52.099Z,98653.00
2022-11-08T01:01:54.021Z,98651.05
2022-11-08T01:03:14.354Z,98654.28
2022-11-08T01:04:19.418Z,98648.90
2022-11-08T01:05:21.172Z,98650.46
2022-11-08T01:06:25.169Z,98646.81
2022-11-08T01:07:26.916Z,98649.04
2022-11-08T01:08:28.829Z,98651.20
2022-11-08T01:09:30.572Z,98651.20
2022-11-08T01:10:32.515Z,98648.63
2022-11-08T01:11:34.914Z,98649.90
2022-11-08T01:12:36.668Z,98651.41
2022-11-08T01:13:38.894Z,98649.20
2022-11-08T01:14:40.602Z,98652.76
2022-11-08T01:15:44.651Z,98651.90
2022-11-08T01:16:46.481Z,98649.04
2022-11-08T01:17:48.228Z,98649.58
2022-11-08T01:18:53.023Z,98651.08
2022-11-08T01:19:54.774Z,98647.46
2022-11-08T01:20:56.512Z,98651.29
2022-11-08T01:21:58.238Z,98648.34
2022-11-08T01:23:00.010Z,98643.23
2022-11-08T01:24:01.970Z,98645.97
2022-11-08T01:25:04.519Z,98644.64
2022-11-08T01:26:13.500Z,98643.61
2022-11-08T01:27:15.265Z,98645.63
2022-11-08T01:28:17.870Z,98644.39
2022-11-08T01:29:20.003Z,98646.66
2022-11-08T01:30:21.751Z,98643.30
2022-11-08T01:31:27.634Z,98646.93
2022-11-08T01:32:29.648Z,98641.92
2022-11-08T01:33:31.516Z,98646.45
2022-11-08T01:34:33.414Z,98648.17
2022-11-08T01:35:37.130Z,98646.62
2022-11-08T01:36:38.862Z,98646.71
2022-11-08T01:37:40.631Z,98644.23
2022-11-08T01:38:42.926Z,98645.10
2022-11-08T01:39:44.729Z,98646.06
2022-11-08T01:40:48.441Z,98642.03
2022-11-08T01:41:50.221Z,98642.63
2022-11-08T01:42:53.677Z,98644.80
2022-11-08T01:43:58.757Z,98641.23
2022-11-08T01:45:03.051Z,98642.80
2022-11-08T01:46:19.634Z,98639.80
2022-11-08T01:47:21.361Z,98642.05
2022-11-08T01:48:26.657Z,98644.44
2022-11-08T01:49:33.149Z,98642.07
2022-11-08T01:50:34.895Z,98640.61
2022-11-08T01:51:44.772Z,98640.98
2022-11-08T01:52:52.140Z,98643.94
2022-11-08T01:53:54.425Z,98643.88
2022-11-08T01:55:02.611Z,98644.09
2022-11-08T01:56:06.178Z,98641.74
2022-11-08T01:57:14.457Z,98640.92
2022-11-08T01:58:24.551Z,98638.86
2022-11-08T01:59:26.833Z,98640.35
2022-11-08T02:00:30.285Z,98641.73
2022-11-08T02:01:32.263Z,98637.79
2022-11-08T02:02:37.780Z,98638.96
2022-11-08T02:03:41.734Z,98640.84
2022-11-08T02:04:43.949Z,98641.55
2022-11-08T02:05:47.262Z,98641.30
2022-11-08T02:06:50.946Z,98641.15
2022-11-08T02:08:04.816Z,98640.67
2022-11-08T02:09:10.802Z,98637.48
2022-11-08T02:10:12.646Z,98638.02
2022-11-08T02:11:17.727Z,98635.21
2022-11-08T02:12:23.206Z,98632.72
2022-11-08T02:13:28.938Z,98634.21
2022-11-08T02:14:31.087Z,98634.19
2022-11-08T02:15:32.906Z,98630.36
2022-11-08T02:16:34.656Z,98629.60
2022-11-08T02:17:36.470Z,98628.63
2022-11-08T02:18:39.562Z,98630.50
2022-11-08T02:19:45.838Z,98625.91
2022-11-08T02:21:14.087Z,98624.29
2022-11-08T02:22:26.516Z,98628.84
2022-11-08T02:23:52.381Z,98630.27
2022-11-08T02:24:55.027Z,98631.23
2022-11-08T02:25:56.782Z,98626.92
2022-11-08T02:26:59.207Z,98632.62
2022-11-08T02:28:00.905Z,98632.33
2022-11-08T02:29:25.589Z,98633.73
2022-11-08T02:30:38.476Z,98634.09
2022-11-08T02:31:40.215Z,98636.88
2022-11-08T02:32:42.988Z,98636.48
2022-11-08T02:33:46.795Z,98639.06
2022-11-08T02:34:58.153Z,98635.29
2022-11-08T02:36:00.011Z,98636.78
2022-11-08T02:37:04.003Z,98638.55
2022-11-08T02:38:05.892Z,98637.27
2022-11-08T02:39:07.627Z,98640.83
2022-11-08T02:40:10.349Z,98637.56
2022-11-08T02:41:12.708Z,98638.05
2022-11-08T02:42:18.490Z,98637.36
2022-11-08T02:43:21.841Z,98631.39
2022-11-08T02:44:23.559Z,98628.06
2022-11-08T02:45:25.264Z,98627.05
2022-11-08T02:46:26.975Z,98627.70
2022-11-08T02:47:28.713Z,98624.85
2022-11-08T02:48:30.776Z,98628.67
2022-11-08T02:49:32.522Z,98632.23
2022-11-08T02:50:34.424Z,98632.59
2022-11-08T02:51:36.208Z,98628.77
2022-11-08T02:52:37.933Z,98628.52
2022-11-08T02:53:39.723Z,98627.48
2022-11-08T02:54:41.607Z,98627.02
2022-11-08T02:55:43.687Z,98626.54
2022-11-08T02:56:45.464Z,98626.39
2022-11-08T02:57:47.192Z,98624.52
2022-11-08T02:58:49.035Z,98624.31
2022-11-08T02:59:50.801Z,98626.15
2022-11-08T03:00:52.532Z,98629.02
2022-11-08T03:01:54.430Z,98631.02
2022-11-08T03:02:58.168Z,98629.37
2022-11-08T03:04:00.092Z,98632.77
2022-11-08T03:05:01.845Z,98630.67
2022-11-08T03:06:03.867Z,98628.05
2022-11-08T03:07:05.591Z,98630.05
2022-11-08T03:08:07.324Z,98627.99
2022-11-08T03:09:09.109Z,98628.48
2022-11-08T03:10:12.090Z,98630.76
2022-11-08T03:11:13.909Z,98630.05
2022-11-08T03:12:15.995Z,98633.08
2022-11-08T03:13:17.797Z,98633.32
2022-11-08T03:14:19.580Z,98633.91
2022-11-08T03:15:21.275Z,98635.27
2022-11-08T03:16:23.136Z,98636.38
2022-11-08T03:17:24.863Z,98635.58
2022-11-08T03:18:26.560Z,98634.16
2022-11-08T03:19:28.273Z,98634.39
2022-11-08T03:20:33.171Z,98636.02
2022-11-08T03:21:36.821Z,98633.08
2022-11-08T03:22:38.620Z,98634.16
2022-11-08T03:23:40.374Z,98636.27
2022-11-08T03:24:42.119Z,98636.27
2022-11-08T03:25:43.910Z,98638.45
2022-11-08T03:26:45.720Z,98637.50
2022-11-08T03:27:47.429Z,98639.85
2022-11-08T03:28:49.215Z,98639.75
2022-11-08T03:29:51.241Z,98640.44
2022-11-08T03:30:53.220Z,98638.44
2022-11-08T03:31:54.928Z,98644.26
2022-11-08T03:32:56.964Z,98643.92
2022-11-08T03:33:58.645Z,98643.29
2022-11-08T03:35:00.956Z,98643.48
2022-11-08T03:36:03.314Z,98646.20
2022-11-08T03:37:05.913Z,98647.37
2022-11-08T03:38:07.694Z,98645.11
2022-11-08T03:39:11.580Z,98647.35
2022-11-08T03:40:13.414Z,98646.46
2022-11-08T03:41:15.216Z,98643.61
2022-11-08T03:42:17.036Z,98647.88
2022-11-08T03:43:19.019Z,98646.90
2022-11-08T03:44:20.750Z,98646.42
2022-11-08T03:45:22.747Z,98649.91
2022-11-08T03:46:24.435Z,98643.83
2022-11-08T03:47:26.121Z,98645.90
2022-11-08T03:48:28.364Z,98649.05
2022-11-08T03:49:30.079Z,98650.00
2022-11-08T03:50:31.816Z,98654.69
2022-11-08T03:51:33.576Z,98653.78
2022-11-08T03:52:45.441Z,98650.85
2022-11-08T03:53:47.179Z,98654.60
2022-11-08T03:54:48.878Z,98653.86
2022-11-08T03:55:50.655Z,98656.21
2022-11-08T03:56:52.482Z,98652.56
2022-11-08T03:57:55.630Z,98651.36
2022-11-08T03:58:57.375Z,98656.84
2022-11-08T03:59:59.062Z,98651.78
2022-11-08T04:01:08.479Z,98653.85
2022-11-08T04:02:10.400Z,98653.11
2022-11-08T04:03:12.249Z,98651.51
2022-11-08T04:04:14.059Z,98653.07
2022-11-08T04:05:17.076Z,98654.84
2022-11-08T04:06:18.806Z,98651.81
2022-11-08T04:07:20.518Z,98652.72
2022-11-08T04:08:22.338Z,98652.19
2022-11-08T04:09:24.100Z,98652.72
2022-11-08T04:10:25.883Z,98651.48
2022-11-08T04:11:45.830Z,98650.75
2022-11-08T04:13:06.158Z,98647.07
2022-11-08T04:14:28.191Z,98648.22
2022-11-08T04:15:31.521Z,98648.30
2022-11-08T04:16:34.361Z,98647.14
2022-11-08T04:17:54.523Z,98645.99
2022-11-08T04:19:14.566Z,98647.25
2022-11-08T04:20:34.865Z,98644.95
2022-11-08T04:21:36.598Z,98649.27
2022-11-08T04:22:38.370Z,98649.52
2022-11-08T04:23:40.225Z,98651.33
2022-11-08T04:24:41.997Z,98649.27
2022-11-08T04:25:45.410Z,98648.55
2022-11-08T04:26:47.169Z,98651.98
2022-11-08T04:27:48.909Z,98652.78
2022-11-08T04:28:50.654Z,98653.02
2022-11-08T04:29:52.431Z,98653.15
2022-11-08T04:30:56.673Z,98653.63
2022-11-08T04:31:58.460Z,98649.38
2022-11-08T04:33:02.271Z,98649.66
2022-11-08T04:34:04.038Z,98648.39
2022-11-08T04:35:05.913Z,98642.05
2022-11-08T04:36:11.570Z,98645.59
2022-11-08T04:37:13.237Z,98639.95
2022-11-08T04:38:16.143Z,98641.71
2022-11-08T04:39:18.165Z,98641.30
2022-11-08T04:40:19.884Z,98640.63
2022-11-08T04:41:24.508Z,98639.19
2022-11-08T04:42:26.217Z,98639.34
2022-11-08T04:43:28.634Z,98640.17
2022-11-08T04:44:30.329Z,98636.14
2022-11-08T04:45:32.065Z,98638.64
2022-11-08T04:46:33.850Z,98637.60
2022-11-08T04:47:40.127Z,98635.56
2022-11-08T04:48:44.787Z,98634.88
2022-11-08T04:49:46.490Z,98638.06
2022-11-08T04:50:48.206Z,98637.55
2022-11-08T04:51:50.227Z,98638.45
2022-11-08T04:52:53.575Z,98635.91
2022-11-08T04:53:57.817Z,98635.38
2022-11-08T04:54:59.534Z,98637.06
2022-11-08T04:56:03.335Z,98635.52
2022-11-08T04:57:05.056Z,98638.60
2022-11-08T04:58:06.743Z,98637.29
2022-11-08T04:59:12.013Z,98641.41
2022-11-08T05:00:15.745Z,98645.19
2022-11-08T05:01:20.537Z,98644.27
2022-11-08T05:02:22.594Z,98644.99
2022-11-08T05:03:24.724Z,98643.14
2022-11-08T05:04:26.617Z,98645.33
2022-11-08T05:05:28.711Z,98645.52
2022-11-08T05:06:32.003Z,98643.06
2022-11-08T05:07:33.824Z,98646.80
2022-11-08T05:08:35.541Z,98645.94
2022-11-08T05:09:37.316Z,98649.48
2022-11-08T05:10:39.036Z,98646.56
2022-11-08T05:11:40.982Z,98647.42
2022-11-08T05:12:43.087Z,98649.19
2022-11-08T05:13:45.755Z,98646.54
2022-11-08T05:14:47.853Z,98648.11
2022-11-08T05:15:49.556Z,98645.38
2022-11-08T05:16:51.367Z,98648.58
2022-11-08T05:17:53.335Z,98647.52
2022-11-08T05:18:55.234Z,98646.38
2022-11-08T05:20:15.470Z,98650.88
2022-11-08T05:21:38.355Z,98648.98
2022-11-08T05:22:58.456Z,98648.95
2022-11-08T05:24:01.996Z,98653.34
2022-11-08T05:25:03.908Z,98656.29
2022-11-08T05:26:06.930Z,98657.20
2022-11-08T05:27:09.044Z,98656.81
2022-11-08T05:28:10.809Z,98659.75
2022-11-08T05:29:15.214Z,98657.76
2022-11-08T05:30:17.001Z,98663.17
2022-11-08T05:31:18.995Z,98666.29
2022-11-08T05:32:20.826Z,98664.08
2022-11-08T05:33:23.616Z,98667.28
2022-11-08T05:34:25.534Z,98664.59
2022-11-08T05:35:27.414Z,98661.93
2022-11-08T05:36:30.094Z,98662.60
2022-11-08T05:37:31.832Z,98664.67
2022-11-08T05:38:34.253Z,98662.11
2022-11-08T05:39:35.988Z,98662.53
2022-11-08T05:40:38.166Z,98664.92
2022-11-08T05:41:39.872Z,98667.56
2022-11-08T05:42:41.658Z,98669.17
2022-11-08T05:43:46.327Z,98669.05
2022-11-08T05:44:48.020Z,98668.34
2022-11-08T05:45:49.891Z,98669.61
2022-11-08T05:46:51.617Z,98670.21
2022-11-08T05:47:53.382Z,98670.69
2022-11-08T05:48:55.196Z,98669.46
2022-11-08T05:49:56.902Z,98671.44
2022-11-08T05:50:58.862Z,98669.86
2022-11-08T05:52:00.608Z,98673.66
2022-11-08T05:53:02.425Z,98669.58
2022-11-08T05:54:04.444Z,98670.24
2022-11-08T05:55:06.972Z,98665.08
2022-11-08T05:56:10.111Z,98664.58
2022-11-08T05:57:12.248Z,98658.88
2022-11-08T05:58:14.043Z,98661.28
2022-11-08T05:59:15.766Z,98663.38
2022-11-08T06:00:18.041Z,98664.02
2022-11-08T06:01:20.991Z,98659.30
2022-11-08T06:02:22.832Z,98662.45
2022-11-08T06:03:25.060Z,98661.42
2022-11-08T06:04:27.171Z,98663.11
2022-11-08T06:05:28.969Z,98666.48
2022-11-08T06:06:30.736Z,98666.54
2022-11-08T06:07:32.489Z,98667.38
2022-11-08T06:08:34.903Z,98665.33
2022-11-08T06:09:36.635Z,98665.27
2022-11-08T06:10:38.368Z,98670.96
2022-11-08T06:11:40.119Z,98674.45
2022-11-08T06:12:41.921Z,98673.95
2022-11-08T06:13:44.214Z,98675.66
2022-11-08T06:14:46.073Z,98674.48
2022-11-08T06:15:47.804Z,98673.73
2022-11-08T06:16:49.699Z,98674.26
2022-11-08T06:17:51.409Z,98674.63
2022-11-08T06:18:53.289Z,98677.45
2022-11-08T06:19:55.109Z,98677.43
2022-11-08T06:21:01.550Z,98677.73
2022-11-08T06:22:03.594Z,98681.27
2022-11-08T06:23:05.342Z,98676.76
2022-11-08T06:24:07.407Z,98676.99
2022-11-08T06:25:10.885Z,98678.80
2022-11-08T06:26:12.953Z,98680.42
2022-11-08T06:27:15.849Z,98679.92
2022-11-08T06:28:17.839Z,98680.00
2022-11-08T06:29:19.793Z,98681.73
2022-11-08T06:30:21.632Z,98681.19
2022-11-08T06:31:24.036Z,98678.97
2022-11-08T06:32:25.743Z,98682.70
2022-11-08T06:33:27.841Z,98684.71
2022-11-08T06:34:29.620Z,98683.83
2022-11-08T06:35:31.605Z,98682.23
2022-11-08T06:36:33.312Z,98676.70
2022-11-08T06:37:35.027Z,98681.13
2022-11-08T06:38:37.302Z,98684.61
2022-11-08T06:39:39.184Z,98684.90
2022-11-08T06:40:41.007Z,98685.47
2022-11-08T06:41:42.741Z,98684.73
2022-11-08T06:42:44.462Z,98691.71
2022-11-08T06:43:46.316Z,98690.91
2022-11-08T06:44:48.065Z,98687.71
2022-11-08T06:45:49.799Z,98693.25
2022-11-08T06:46:51.531Z,98692.70
2022-11-08T06:48:03.698Z,98691.45
2022-11-08T06:49:05.571Z,98690.79
2022-11-08T06:50:07.626Z,98691.88
2022-11-08T06:51:09.408Z,98689.11
2022-11-08T06:52:11.109Z,98687.98
2022-11-08T06:53:15.068Z,98692.13
2022-11-08T06:54:17.990Z,98696.21
2022-11-08T06:55:19.922Z,98699.40
2022-11-08T06:56:21.649Z,98696.89
2022-11-08T06:57:23.473Z,98699.04
2022-11-08T06:58:25.253Z,98695.90
2022-11-08T06:59:27.537Z,98695.77
2022-11-08T07:00:29.743Z,98694.69
2022-11-08T07:01:31.717Z,98695.26
2022-11-08T07:02:33.635Z,98690.61
2022-11-08T07:03:35.547Z,98693.73
2022-11-08T07:04:37.372Z,98691.35
2022-11-08T07:05:39.112Z,98690.27
2022-11-08T07:06:41.210Z,98691.02
2022-11-08T07:07:42.938Z,98690.88
2022-11-08T07:08:44.672Z,98691.09
2022-11-08T07:09:46.372Z,98691.95
2022-11-08T07:10:48.090Z,98687.95
2022-11-08T07:11:49.802Z,98686.11
2022-11-08T07:13:04.754Z,98684.76
2022-11-08T07:14:06.600Z,98683.89
2022-11-08T07:15:08.573Z,98683.92
2022-11-08T07:16:10.371Z,98689.81
2022-11-08T07:17:12.181Z,98685.80
2022-11-08T07:18:15.993Z,98686.59
2022-11-08T07:19:17.891Z,98685.50
2022-11-08T07:20:19.695Z,98689.48
2022-11-08T07:21:22.962Z,98684.51
2022-11-08T07:22:24.719Z,98685.59
2022-11-08T07:23:26.878Z,98685.69
2022-11-08T07:24:28.614Z,98684.52
2022-11-08T07:25:31.036Z,98684.80
2022-11-08T07:26:32.817Z,98688.05
2022-11-08T07:27:34.676Z,98690.80
2022-11-08T07:28:36.790Z,98685.90
2022-11-08T07:29:38.686Z,98689.21
2022-11-08T07:30:40.473Z,98688.16
2022-11-08T07:31:42.231Z,98687.97
2022-11-08T07:32:43.976Z,98688.43
2022-11-08T07:33:45.791Z,98688.78
2022-11-08T07:34:47.520Z,98686.43
2022-11-08T07:35:49.416Z,98687.23
2022-11-08T07:36:51.156Z,98689.47
2022-11-08T07:37:53.253Z,98682.92
2022-11-08T07:38:55.115Z,98684.53
2022-11-08T07:39:56.967Z,98687.30
2022-11-08T07:41:01.340Z,98688.23
2022-11-08T07:42:05.310Z,98688.05
2022-11-08T07:43:12.650Z,98688.13
2022-11-08T07:44:14.952Z,98691.70
2022-11-08T07:45:16.813Z,98688.71
2022-11-08T07:46:18.641Z,98691.42
2022-11-08T07:47:20.353Z,98691.59
2022-11-08T07:48:22.593Z,98692.70
2022-11-08T07:49:24.536Z,98694.26
2022-11-08T07:50:26.742Z,98696.17
2022-11-08T07:51:28.594Z,98691.71
2022-11-08T07:52:30.610Z,98699.47
2022-11-08T07:53:32.329Z,98702.20
2022-11-08T07:54:34.412Z,98703.04
2022-11-08T07:55:37.763Z,98704.74
2022-11-08T07:56:39.528Z,98699.92
2022-11-08T07:57:41.231Z,98705.55
2022-11-08T07:58:42.947Z,98707.31
2022-11-08T07:59:45.046Z,98710.14
2022-11-08T08:00:49.780Z,98706.61
2022-11-08T08:01:51.535Z,98703.46
2022-11-08T08:03:00.756Z,98704.54
2022-11-08T08:04:02.589Z,98701.98
2022-11-08T08:05:04.724Z,98704.00
2022-11-08T08:06:06.592Z,98700.52
2022-11-08T08:07:08.545Z,98700.79
2022-11-08T08:08:12.520Z,98705.36
2022-11-08T08:09:14.308Z,98701.71
2022-11-08T08:10:16.406Z,98702.41
2022-11-08T08:11:18.091Z,98700.73
2022-11-08T08:12:19.820Z,98699.98
2022-11-08T08:13:21.761Z,98697.69
2022-11-08T08:14:23.562Z,98696.79
2022-11-08T08:15:26.502Z,98697.36
2022-11-08T08:16:28.256Z,98695.39
2022-11-08T08:17:30.363Z,98694.34
2022-11-08T08:18:32.221Z,98693.19
2022-11-08T08:19:33.977Z,98693.10
2022-11-08T08:20:37.430Z,98692.52
2022-11-08T08:21:39.217Z,98691.27
2022-11-08T08:22:52.034Z,98690.99
2022-11-08T08:23:53.776Z,98695.17
2022-11-08T08:24:59.238Z,98692.55
2022-11-08T08:26:03.715Z,98694.16
2022-11-08T08:27:05.408Z,98695.33
2022-11-08T08:28:07.137Z,98695.89
2022-11-08T08:29:08.866Z,98696.34
2022-11-08T08:30:10.761Z,98698.52
2022-11-08T08:31:13.304Z,98701.73
2022-11-08T08:32:14.984Z,98702.77
2022-11-08T08:33:33.458Z,98702.21
2022-11-08T08:34:35.209Z,98699.70
2022-11-08T08:35:38.429Z,98700.36
2022-11-08T08:36:40.471Z,98699.63
2022-11-08T08:37:42.202Z,98698.23
2022-11-08T08:38:44.832Z,98697.86
2022-11-08T08:39:46.940Z,98696.41
2022-11-08T08:40:48.758Z,98696.27
2022-11-08T08:41:50.946Z,98696.16
2022-11-08T08:42:52.932Z,98697.08
2022-11-08T08:43:55.614Z,98695.85
2022-11-08T08:44:57.290Z,98695.27
2022-11-08T08:46:00.991Z,98696.67
2022-11-08T08:47:02.882Z,98694.48
2022-11-08T08:48:04.868Z,98694.00
2022-11-08T08:49:06.567Z,98692.65
2022-11-08T08:50:08.696Z,98692.91
2022-11-08T08:51:10.580Z,98692.23
2022-11-08T08:52:12.407Z,98695.10
2022-11-08T08:53:14.121Z,98689.53
2022-11-08T08:54:15.801Z,98691.00
2022-11-08T08:55:17.911Z,98692.19
2022-11-08T08:56:19.612Z,98690.85
2022-11-08T08:57:21.456Z,98692.90
2022-11-08T08:58:23.359Z,98688.20
2022-11-08T09:02:17.296Z,98684.20
2022-11-08T09:03:19.604Z,98683.12
2022-11-08T09:04:21.646Z,98685.03
2022-11-08T09:05:23.311Z,98682.94
2022-11-08T09:06:25.256Z,98684.02
2022-11-08T09:07:27.107Z,98687.24
2022-11-08T09:08:29.273Z,98685.52
2022-11-08T09:09:31.000Z,98684.37
2022-11-08T09:10:32.910Z,98683.35
2022-11-08T09:11:34.654Z,98686.52
2022-11-08T09:12:37.904Z,98682.79
2022-11-08T09:13:39.570Z,98686.66
2022-11-08T09:14:41.265Z,98684.07
2022-11-08T09:15:42.936Z,98683.75
2022-11-08T09:16:44.602Z,98685.67
2022-11-08T09:17:46.527Z,98685.88
2022-11-08T09:18:48.817Z,98680.90
2022-11-08T09:19:55.925Z,98685.65
2022-11-08T09:20:59.907Z,98684.88
2022-11-08T09:22:01.733Z,98682.85
2022-11-08T09:23:03.932Z,98686.36
2022-11-08T09:24:05.971Z,98687.74
2022-11-08T09:25:07.995Z,98686.37
2022-11-08T09:26:10.718Z,98684.67
2022-11-08T09:27:12.457Z,98685.25
2022-11-08T09:28:14.312Z,98685.78
2022-11-08T09:29:16.274Z,98684.41
2022-11-08T09:30:17.989Z,98684.73
2022-11-08T09:31:19.729Z,98684.30
2022-11-08T09:32:39.324Z,98683.14
2022-11-08T09:33:44.145Z,98685.02
2022-11-08T09:34:45.892Z,98682.23
2022-11-08T09:35:48.467Z,98682.92
2022-11-08T09:36:50.207Z,98679.66
2022-11-08T09:37:55.540Z,98679.93
2022-11-08T09:38:57.228Z,98681.91
2022-11-08T09:39:59.002Z,98681.42
2022-11-08T09:41:55.622Z,98682.27
2022-11-08T09:43:06.204Z,98688.65
2022-11-08T09:44:36.377Z,98685.34
2022-11-08T09:45:46.443Z,98680.91
2022-11-08T09:46:56.483Z,98682.95
2022-11-08T09:48:05.356Z,98681.90
2022-11-08T09:49:19.950Z,98681.06
2022-11-08T09:50:30.625Z,98682.33
2022-11-08T09:51:35.761Z,98681.29
2022-11-08T09:52:41.669Z,98681.30
2022-11-08T09:53:52.375Z,98680.02
2022-11-08T09:55:41.255Z,98673.96
2022-11-08T09:56:44.269Z,98679.17
2022-11-08T09:58:20.994Z,98679.16
2022-11-08T09:59:41.129Z,98679.52
2022-11-08T10:00:43.074Z,98676.94
2022-11-08T10:01:44.829Z,98676.62
2022-11-08T10:02:47.063Z,98678.70
2022-11-08T10:03:54.086Z,98679.18
2022-11-08T10:05:00.695Z,98681.86
2022-11-08T10:06:18.345Z,98677.35
2022-11-08T10:07:41.957Z,98678.92
2022-11-08T10:09:09.772Z,98672.92
2022-11-08T10:10:29.967Z,98673.11
2022-11-08T10:11:57.938Z,98675.84
2022-11-08T10:13:33.432Z,98675.83
2022-11-08T10:14:59.734Z,98670.55
2022-11-08T10:16:23.210Z,98667.30
2022-11-08T10:17:48.116Z,98667.23
2022-11-08T10:19:10.489Z,98668.06
2022-11-08T10:20:54.842Z,98664.64
2022-11-08T10:22:12.233Z,98661.61
2022-11-08T10:23:30.312Z,98664.34
2022-11-08T10:24:35.729Z,98660.91
2022-11-08T10:25:47.637Z,98659.16
2022-11-08T10:26:53.131Z,98656.04
2022-11-08T10:27:59.489Z,98654.78
2022-11-08T10:29:15.535Z,98658.48
2022-11-08T10:30:26.691Z,98655.59
2022-11-08T10:31:35.125Z,98656.55
2022-11-08T10:32:37.233Z,98654.62
2022-11-08T10:33:43.142Z,98654.02
2022-11-08T10:35:16.209Z,98658.73
2022-11-08T10:36:31.541Z,98652.08
2022-11-08T10:37:33.782Z,98651.92
2022-11-08T10:39:10.645Z,98656.83
2022-11-08T10:40:24.971Z,98652.94
2022-11-08T10:41:58.319Z,98652.90
2022-11-08T10:43:17.120Z,98648.11
2022-11-08T10:44:23.770Z,98644.85
2022-11-08T10:45:25.480Z,98645.45
2022-11-08T10:46:41.668Z,98648.45
2022-11-08T10:47:46.179Z,98649.18
2022-11-08T10:48:47.881Z,98643.34
2022-11-08T10:49:49.597Z,98641.02
2022-11-08T10:50:53.800Z,98641.67
2022-11-08T10:52:01.335Z,98643.30
2022-11-08T10:53:04.488Z,98645.58
2022-11-08T10:55:33.467Z,98640.73
2022-11-08T10:56:55.913Z,98643.90
2022-11-08T10:57:57.677Z,98643.52
2022-11-08T10:58:59.555Z,98650.16
2022-11-08T11:00:16.590Z,98645.77
2022-11-08T11:01:22.561Z,98645.33
2022-11-08T11:02:26.177Z,98647.20
2022-11-08T11:03:30.378Z,98650.34
2022-11-08T11:04:34.736Z,98651.43
2022-11-08T11:05:58.844Z,98650.59
2022-11-08T11:07:32.402Z,98652.47
2022-11-08T11:08:34.530Z,98648.52
2022-11-08T11:09:36.270Z,98651.00
2022-11-08T11:10:41.683Z,98646.15
2022-11-08T11:11:43.517Z,98642.41
2022-11-08T11:12:51.138Z,98641.42
2022-11-08T11:14:21.922Z,98638.08
2022-11-08T11:15:24.086Z,98642.33
2022-11-08T11:16:25.869Z,98639.98
2022-11-08T11:17:37.286Z,98638.86
2022-11-08T11:18:50.859Z,98637.41
2022-11-08T11:19:57.571Z,98634.20
2022-11-08T11:21:13.200Z,98636.55
2022-11-08T11:22:15.116Z,98633.58
2022-11-08T11:23:16.965Z,98633.16
2022-11-08T11:24:20.867Z,98632.10
2022-11-08T11:25:24.079Z,98635.26
2022-11-08T11:26:34.560Z,98635.77
2022-11-08T11:27:38.586Z,98634.88
2022-11-08T11:29:04.011Z,98632.76
2022-11-08T11:30:22.685Z,98629.75
2022-11-08T11:31:24.473Z,98635.38
2022-11-08T11:32:34.773Z,98633.15
2022-11-08T11:33:45.145Z,98634.63
2022-11-08T11:34:53.649Z,98633.66
2022-11-08T11:36:12.267Z,98633.27
2022-11-08T11:37:41.900Z,98636.37
2022-11-08T11:39:00.002Z,98639.73
2022-11-08T11:40:19.770Z,98637.95
2022-11-08T11:41:43.194Z,98633.51
2022-11-08T11:43:04.844Z,98636.66
2022-11-08T11:44:23.525Z,98629.81
2022-11-08T11:45:36.326Z,98628.08
2022-11-08T11:46:56.854Z,98630.52
2022-11-08T11:48:04.854Z,98628.48
2022-11-08T11:49:16.797Z,98629.61
2022-11-08T11:50:21.398Z,98627.52
2022-11-08T11:51:30.444Z,98627.94
2022-11-08T11:52:32.299Z,98627.52
2022-11-08T11:53:38.812Z,98631.70
2022-11-08T11:54:41.849Z,98626.30
2022-11-08T11:55:54.023Z,98626.95
2022-11-08T11:57:31.804Z,98628.45
2022-11-08T11:58:55.228Z,98619.83
2022-11-08T12:00:10.124Z,98619.20
2022-11-08T12:01:32.348Z,98620.30
2022-11-08T12:02:59.951Z,98623.20
2022-11-08T12:04:30.949Z,98626.21
2022-11-08T12:05:54.746Z,98623.28
2022-11-08T12:07:21.985Z,98628.52
2022-11-08T12:08:47.592Z,98623.98
2022-11-08T12:10:04.196Z,98616.58
2022-11-08T12:11:24.227Z,98619.14
2022-11-08T12:12:59.317Z,98615.63
2022-11-08T12:14:41.381Z,98615.30
2022-11-08T12:16:06.597Z,98610.99
2022-11-08T12:17:34.633Z,98610.96
2022-11-08T12:19:08.328Z,98610.66
2022-11-08T12:20:26.879Z,98617.40
2022-11-08T12:21:50.242Z,98614.55
2022-11-08T12:23:19.586Z,98613.40
2022-11-08T12:24:32.907Z,98611.54
2022-11-08T12:25:43.341Z,98607.23
2022-11-08T12:27:00.240Z,98607.00
2022-11-08T12:28:42.399Z,98600.49
2022-11-08T12:29:58.310Z,98607.54
2022-11-08T12:31:27.982Z,98606.95
2022-11-08T12:32:39.088Z,98601.52
2022-11-08T12:33:57.781Z,98602.18
2022-11-08T12:35:31.072Z,98599.33
2022-11-08T12:36:47.086Z,98599.04
2022-11-08T12:37:57.764Z,98596.55
2022-11-08T12:39:25.650Z,98592.91
2022-11-08T12:40:44.736Z,98594.50
2022-11-08T12:41:56.838Z,98589.27
2022-11-08T12:43:18.752Z,98590.34
2022-11-08T12:44:32.532Z,98590.31
2022-11-08T12:45:56.453Z,98591.14
2022-11-08T12:47:23.025Z,98591.36
2022-11-08T12:48:46.067Z,98593.60
2022-11-08T12:50:17.657Z,98592.39
2022-11-08T12:51:49.329Z,98594.96
2022-11-08T12:53:14.492Z,98595.57
2022-11-08T12:54:25.459Z,98592.99
2022-11-08T12:55:40.360Z,98589.94
2022-11-08T12:56:45.600Z,98586.38
2022-11-08T12:57:48.362Z,98589.34
2022-11-08T12:58:55.389Z,98590.48
2022-11-08T13:00:08.553Z,98592.55
2022-11-08T13:01:13.522Z,98594.73